Castroville, Texas
Current Conditions -  °F | °C
As of 2:15 AM on Sunday 21 Dec 2014 (Local Time) from KCVB Reporting Station
Overcast Overcast  
Wind Chill: 52°   Ceiling: 2000
Heat Index: 52°   Visibility: 7mi
Dew Point: 45°   Wind: 5mph
Humidity: 76%   Direction: 140°SE
Pressure: 30.15"   Gusts: NA
Location:  29.36°N, 98.88°W
Report Text: KCVB 210815Z AUTO 14004KT 7SM OVC020 11/07 A3015 RMK AO2 T01110070
Loading
Personal Weather Stations






























Interactive Weather Map New forecast layout! Learn more

10-Day Weather Forecast

Advertisements
Track Severe Weather on mobile